Time;durP1;ratioP1;P1;durP2;ratioP2;P2;SDS_P1;SDS_P2;PMS_P1;PMS_P2;Temp;Humidity;BMP_temperature;BMP_pressure;BME280_temperature;BME280_humidity;BME280_pressure;Samples;Min_cycle;Max_cycle;Signal;HPM_P1;HPM_P2
2023/05/15 00:02:05;;;;;;;62.08;31.98;;;11.20;99.90;;;;;;5072045;28;20471;-68
2023/05/15 00:04:31;;;;;;;52.53;30.65;;;11.20;99.90;;;;;;5071291;28;20407;-69
2023/05/15 00:06:57;;;;;;;56.13;31.92;;;11.20;99.90;;;;;;5070649;28;20049;-69
2023/05/15 00:09:22;;;;;;;52.15;30.52;;;11.10;99.90;;;;;;5071057;28;20506;-68
2023/05/15 00:11:48;;;;;;;47.45;30.02;;;11.10;99.90;;;;;;5070521;28;20043;-68
2023/05/15 00:14:13;;;;;;;48.92;29.08;;;11.00;99.90;;;;;;5071503;28;20056;-69
2023/05/15 00:16:39;;;;;;;46.40;28.17;;;10.90;99.90;;;;;;5069322;28;20052;-69
2023/05/15 00:19:05;;;;;;;45.08;28.58;;;10.90;99.90;;;;;;5064159;28;20407;-69
2023/05/15 00:21:31;;;;;;;47.70;28.83;;;10.90;99.90;;;;;;5069674;28;20037;-67
2023/05/15 00:23:57;;;;;;;51.30;29.67;;;11.00;99.90;;;;;;5071073;28;20388;-70
2023/05/15 00:26:23;;;;;;;46.92;28.35;;;11.00;99.90;;;;;;5071726;28;20756;-69
2023/05/15 00:28:49;;;;;;;52.28;30.70;;;10.90;99.90;;;;;;5069982;28;20125;-69
2023/05/15 00:31:15;;;;;;;52.83;31.17;;;11.10;99.90;;;;;;5071440;28;20174;-68
2023/05/15 00:33:41;;;;;;;55.33;32.50;;;10.90;99.90;;;;;;5067676;28;20119;-71
2023/05/15 00:36:07;;;;;;;47.95;30.75;;;10.80;99.90;;;;;;5071290;28;20044;-72
2023/05/15 00:38:33;;;;;;;50.38;32.22;;;10.80;99.90;;;;;;5069393;28;20045;-68
2023/05/15 00:41:01;;;;;;;53.33;31.85;;;10.80;99.90;;;;;;5070823;28;20086;-69
2023/05/15 00:43:27;;;;;;;56.80;33.47;;;10.80;99.90;;;;;;5071061;28;20123;-68
2023/05/15 00:45:54;;;;;;;60.30;32.78;;;10.70;99.90;;;;;;5070720;28;20036;-71
2023/05/15 00:48:21;;;;;;;55.28;33.05;;;10.70;99.90;;;;;;5070593;28;20052;-69
2023/05/15 00:50:50;;;;;;;54.78;33.25;;;10.60;99.90;;;;;;5069486;28;20051;-69
2023/05/15 00:53:16;;;;;;;55.85;32.00;;;10.70;99.90;;;;;;5071267;28;20044;-69
2023/05/15 00:55:45;;;;;;;57.10;32.50;;;10.70;99.90;;;;;;5070614;28;20048;-69
2023/05/15 00:58:11;;;;;;;60.20;32.30;;;10.60;99.90;;;;;;5065541;28;20048;-70
2023/05/15 01:00:37;;;;;;;56.78;32.25;;;10.60;99.90;;;;;;5070790;28;20040;-70
2023/05/15 01:03:04;;;;;;;51.45;32.25;;;10.60;99.90;;;;;;5070863;28;20043;-70
2023/05/15 01:05:30;;;;;;;49.40;31.30;;;10.80;99.90;;;;;;5070709;28;20044;-69
2023/05/15 01:08:22;;;;;;;54.50;33.20;;;10.80;99.90;;;;;;5070724;28;20040;-71
2023/05/15 01:10:49;;;;;;;50.00;32.13;;;10.70;99.90;;;;;;5070276;28;20048;-70
2023/05/15 01:13:15;;;;;;;56.83;32.53;;;10.80;99.90;;;;;;5070655;28;20052;-69
2023/05/15 01:15:42;;;;;;;47.38;30.63;;;10.70;99.90;;;;;;5052274;28;20040;-70
2023/05/15 01:18:07;;;;;;;54.58;33.95;;;10.70;99.90;;;;;;5070019;28;20049;-70
2023/05/15 01:20:59;;;;;;;51.15;32.13;;;10.70;99.90;;;;;;5069344;28;20528;-68
2023/05/15 01:24:04;;;;;;;52.13;32.25;;;10.70;99.90;;;;;;5028465;28;20085;-71
2023/05/15 01:27:06;;;;;;;57.58;32.83;;;10.70;99.90;;;;;;4998907;28;20746;-68
2023/05/15 01:29:54;;;;;;;49.92;32.03;;;10.70;99.90;;;;;;5022947;28;20048;-69
2023/05/15 01:32:28;;;;;;;49.20;30.23;;;10.70;99.90;;;;;;5011546;28;20408;-69
2023/05/15 01:35:08;;;;;;;48.78;30.17;;;10.70;99.90;;;;;;5027334;28;20404;-70
2023/05/15 01:37:35;;;;;;;51.85;30.83;;;10.60;99.90;;;;;;5027012;28;20116;-69
2023/05/15 01:40:05;;;;;;;54.85;30.23;;;10.60;99.90;;;;;;5003463;28;20052;-69
2023/05/15 01:42:35;;;;;;;46.65;28.77;;;10.60;99.90;;;;;;5011190;28;20052;-72
2023/05/15 01:45:07;;;;;;;53.63;31.55;;;10.60;99.90;;;;;;5011768;28;20057;-69
2023/05/15 01:47:38;;;;;;;47.47;30.15;;;10.60;99.90;;;;;;5018264;28;20045;-70
2023/05/15 01:50:08;;;;;;;53.88;30.77;;;10.80;99.90;;;;;;5007313;28;20053;-69
2023/05/15 01:52:38;;;;;;;55.38;31.23;;;10.60;99.90;;;;;;5010671;28;20378;-69
2023/05/15 01:55:07;;;;;;;50.58;31.65;;;10.60;99.90;;;;;;5022744;28;20065;-73
2023/05/15 01:57:34;;;;;;;50.30;30.17;;;10.60;99.90;;;;;;5008796;28;20121;-69
2023/05/15 02:00:01;;;;;;;45.38;29.45;;;10.60;99.90;;;;;;5038339;28;20048;-69
2023/05/15 02:02:28;;;;;;;43.75;29.45;;;10.60;99.90;;;;;;5063162;28;20495;-70
2023/05/15 02:04:55;;;;;;;44.30;27.52;;;10.60;99.90;;;;;;5068469;28;20079;-70
2023/05/15 02:07:21;;;;;;;48.10;28.70;;;10.60;99.90;;;;;;5064292;28;20056;-71
2023/05/15 02:09:47;;;;;;;44.92;27.60;;;10.70;99.90;;;;;;5069525;28;20037;-70
2023/05/15 02:12:13;;;;;;;53.85;29.20;;;10.60;99.90;;;;;;5067796;28;20048;-70
2023/05/15 02:14:40;;;;;;;47.05;28.10;;;10.60;99.90;;;;;;5068895;28;20048;-73
2023/05/15 02:17:06;;;;;;;51.42;28.13;;;10.50;99.90;;;;;;5069050;28;20083;-70
2023/05/15 02:19:32;;;;;;;49.88;28.38;;;10.60;99.90;;;;;;5068406;28;20052;-69
2023/05/15 02:21:57;;;;;;;45.13;28.52;;;10.50;99.90;;;;;;5068358;28;20109;-68
2023/05/15 02:24:23;;;;;;;51.05;28.10;;;10.50;99.90;;;;;;5061894;28;20126;-69
2023/05/15 02:27:11;;;;;;;46.50;27.80;;;10.60;99.90;;;;;;5061674;28;20049;-70
2023/05/15 02:30:11;;;;;;;48.72;27.92;;;10.50;99.90;;;;;;5069154;28;20036;-70
2023/05/15 02:33:00;;;;;;;44.38;27.73;;;10.40;99.90;;;;;;5068971;28;20789;-69
2023/05/15 02:35:38;;;;;;;52.83;29.05;;;10.40;99.90;;;;;;5067566;28;20049;-70
2023/05/15 02:38:10;;;;;;;52.40;29.17;;;10.40;99.90;;;;;;5067970;28;20072;-69
2023/05/15 02:40:37;;;;;;;48.83;28.60;;;10.40;99.90;;;;;;5064369;28;20052;-70
2023/05/15 02:43:04;;;;;;;47.60;27.80;;;10.30;99.90;;;;;;5068947;28;20079;-69
2023/05/15 02:45:31;;;;;;;47.25;27.30;;;10.30;99.90;;;;;;5066322;28;20506;-69
2023/05/15 02:47:57;;;;;;;42.85;27.05;;;10.50;99.90;;;;;;5066276;28;20032;-70
2023/05/15 02:50:24;;;;;;;45.40;27.67;;;10.40;99.90;;;;;;5059847;28;20048;-69
2023/05/15 02:52:49;;;;;;;41.97;25.40;;;10.30;99.90;;;;;;5069572;28;20052;-70
2023/05/15 02:55:15;;;;;;;40.85;27.15;;;10.20;99.90;;;;;;5068065;28;20430;-68
2023/05/15 02:57:41;;;;;;;41.85;25.55;;;10.20;99.90;;;;;;5068391;28;20082;-69
2023/05/15 03:00:10;;;;;;;42.85;26.65;;;10.20;99.90;;;;;;5068965;28;20052;-69
2023/05/15 03:02:36;;;;;;;42.78;27.52;;;10.10;99.90;;;;;;5066107;28;20084;-69
2023/05/15 03:05:02;;;;;;;45.75;28.08;;;10.00;99.90;;;;;;5068694;28;20055;-69
2023/05/15 03:07:28;;;;;;;44.75;28.17;;;10.00;99.90;;;;;;5063243;28;20045;-68
2023/05/15 03:09:53;;;;;;;49.10;30.25;;;9.90;99.90;;;;;;5057824;28;20041;-71
2023/05/15 03:12:19;;;;;;;49.88;30.88;;;9.90;99.90;;;;;;5070850;28;20048;-71
2023/05/15 03:14:44;;;;;;;51.17;31.33;;;10.00;99.90;;;;;;5068648;28;20091;-69
2023/05/15 03:17:10;;;;;;;48.67;29.77;;;9.80;99.90;;;;;;5072901;28;20051;-68
2023/05/15 03:19:36;;;;;;;45.13;30.05;;;9.80;99.90;;;;;;5072684;28;20053;-69
2023/05/15 03:22:01;;;;;;;49.63;32.17;;;9.90;99.90;;;;;;5072535;28;20184;-69
2023/05/15 03:24:27;;;;;;;51.75;32.03;;;9.70;99.90;;;;;;5073074;28;20119;-69
2023/05/15 03:26:53;;;;;;;46.00;30.27;;;9.80;99.90;;;;;;5071773;28;20478;-69
2023/05/15 03:29:18;;;;;;;48.63;30.42;;;9.80;99.90;;;;;;5072893;28;20478;-69
2023/05/15 03:31:44;;;;;;;40.78;26.65;;;9.60;99.90;;;;;;5068374;28;20040;-70
2023/05/15 03:34:10;;;;;;;41.78;26.98;;;9.60;99.90;;;;;;5071072;28;20450;-70
2023/05/15 03:36:35;;;;;;;38.33;24.67;;;9.50;99.90;;;;;;5071898;28;20415;-71
2023/05/15 03:39:01;;;;;;;32.50;22.65;;;9.50;99.90;;;;;;5071847;28;20056;-69
2023/05/15 03:41:27;;;;;;;37.13;24.10;;;9.50;99.90;;;;;;5066708;28;20041;-70
2023/05/15 03:43:52;;;;;;;38.58;24.35;;;9.50;99.90;;;;;;5071978;28;20119;-70
2023/05/15 03:46:18;;;;;;;36.83;23.83;;;9.50;99.90;;;;;;5070659;28;20048;-70
2023/05/15 03:48:44;;;;;;;34.78;23.80;;;9.50;99.90;;;;;;5070695;28;20075;-70
2023/05/15 03:51:10;;;;;;;34.03;22.10;;;9.50;99.90;;;;;;5072246;28;20036;-72
2023/05/15 03:53:35;;;;;;;33.65;23.42;;;9.60;99.90;;;;;;5070856;28;20037;-70
2023/05/15 03:56:02;;;;;;;36.10;24.42;;;9.60;99.90;;;;;;5072455;28;20048;-70
2023/05/15 03:58:30;;;;;;;37.92;24.92;;;9.70;99.90;;;;;;5070573;28;20102;-71
2023/05/15 04:00:56;;;;;;;33.70;22.80;;;9.70;99.90;;;;;;5070079;28;20048;-68
2023/05/15 04:03:22;;;;;;;34.05;23.17;;;9.70;99.90;;;;;;5072255;28;20063;-69
2023/05/15 04:05:48;;;;;;;37.50;25.90;;;9.70;99.90;;;;;;5070972;28;20106;-69
2023/05/15 04:08:15;;;;;;;30.92;24.27;;;9.80;99.90;;;;;;5065762;28;20033;-72
2023/05/15 04:10:40;;;;;;;31.83;23.38;;;9.80;99.90;;;;;;5068175;28;20059;-70
2023/05/15 04:13:06;;;;;;;33.58;22.88;;;9.80;99.90;;;;;;5071791;28;20044;-71
2023/05/15 04:15:32;;;;;;;30.80;22.60;;;9.90;99.90;;;;;;5070457;28;20048;-72
2023/05/15 04:17:57;;;;;;;28.10;22.25;;;9.90;99.90;;;;;;5071743;28;20052;-69
2023/05/15 04:20:23;;;;;;;30.25;22.70;;;9.90;99.90;;;;;;5072039;28;20119;-69
2023/05/15 04:22:50;;;;;;;29.48;23.08;;;9.90;99.90;;;;;;5070012;28;20048;-69
2023/05/15 04:25:16;;;;;;;33.45;21.45;;;9.90;99.90;;;;;;5067058;28;20071;-69
2023/05/15 04:27:43;;;;;;;30.85;23.73;;;10.10;99.90;;;;;;5066810;28;20111;-68
2023/05/15 04:30:10;;;;;;;28.20;21.63;;;9.90;99.90;;;;;;5071144;28;20036;-70
2023/05/15 04:32:36;;;;;;;31.63;22.15;;;10.00;99.90;;;;;;5071529;28;20415;-68
2023/05/15 04:35:10;;;;;;;25.65;20.75;;;10.00;99.90;;;;;;5069735;28;20051;-68
2023/05/15 04:37:37;;;;;;;32.85;20.45;;;10.00;99.90;;;;;;5069904;28;20063;-69
2023/05/15 04:40:05;;;;;;;30.80;22.40;;;10.10;99.90;;;;;;5071200;28;20041;-70
2023/05/15 04:42:30;;;;;;;31.23;21.67;;;10.10;99.90;;;;;;5071508;28;20074;-70
2023/05/15 04:44:56;;;;;;;28.15;21.63;;;10.30;99.90;;;;;;5070724;28;20671;-69
2023/05/15 04:47:22;;;;;;;34.33;22.95;;;10.20;99.90;;;;;;5071232;28;20037;-69
2023/05/15 04:49:48;;;;;;;29.92;22.90;;;10.20;99.90;;;;;;5071143;28;20045;-68
2023/05/15 04:52:14;;;;;;;31.45;22.77;;;10.20;99.90;;;;;;5069327;28;20055;-70
2023/05/15 04:54:40;;;;;;;32.33;21.58;;;10.30;99.90;;;;;;5071009;28;20037;-69
2023/05/15 04:57:07;;;;;;;34.55;22.77;;;10.60;99.90;;;;;;5068508;28;20090;-69
2023/05/15 04:59:33;;;;;;;27.45;21.35;;;10.50;99.90;;;;;;5069636;28;20114;-69
2023/05/15 05:01:59;;;;;;;30.65;22.48;;;10.40;99.90;;;;;;5069057;28;20053;-71
2023/05/15 05:04:25;;;;;;;26.73;20.83;;;10.50;99.90;;;;;;5069202;28;20044;-69
2023/05/15 05:06:50;;;;;;;26.25;20.10;;;10.50;99.90;;;;;;5068846;28;20039;-69
2023/05/15 05:09:18;;;;;;;29.13;21.50;;;10.50;99.90;;;;;;5070427;28;20052;-69
2023/05/15 05:11:44;;;;;;;28.95;20.45;;;10.60;99.90;;;;;;5071151;28;20502;-69
2023/05/15 05:14:11;;;;;;;28.55;19.38;;;10.80;99.90;;;;;;5068772;28;20062;-69
2023/05/15 05:16:36;;;;;;;26.00;19.30;;;10.70;99.90;;;;;;5070179;28;20047;-69
2023/05/15 05:19:02;;;;;;;24.80;20.67;;;10.70;99.90;;;;;;5063320;28;20048;-71
2023/05/15 05:21:28;;;;;;;23.88;20.15;;;10.70;99.90;;;;;;5065451;28;20032;-70
2023/05/15 05:23:54;;;;;;;27.60;19.65;;;10.80;99.90;;;;;;5070211;28;20067;-70
2023/05/15 05:26:20;;;;;;;31.05;20.50;;;10.80;99.90;;;;;;5070489;28;20036;-70
2023/05/15 05:28:46;;;;;;;25.30;20.45;;;11.00;99.90;;;;;;5069167;28;20044;-70
2023/05/15 05:31:12;;;;;;;29.08;21.50;;;10.90;99.90;;;;;;5069677;28;20044;-70
2023/05/15 05:33:38;;;;;;;27.65;21.45;;;11.20;99.90;;;;;;5070452;28;20106;-70
2023/05/15 05:36:04;;;;;;;26.92;20.77;;;11.00;99.90;;;;;;5068648;28;20139;-71
2023/05/15 05:38:31;;;;;;;32.10;20.52;;;11.00;99.90;;;;;;5069195;28;20131;-70
2023/05/15 05:40:57;;;;;;;31.35;20.20;;;11.10;99.90;;;;;;5070290;28;20133;-72
2023/05/15 05:43:25;;;;;;;29.65;20.73;;;11.20;99.90;;;;;;5067334;28;20089;-71
2023/05/15 05:45:51;;;;;;;26.33;20.15;;;11.30;99.90;;;;;;5063572;28;20468;-71
2023/05/15 05:48:16;;;;;;;31.45;21.48;;;11.30;99.90;;;;;;5068447;28;20116;-71
2023/05/15 05:50:42;;;;;;;28.17;20.58;;;11.40;99.90;;;;;;5070262;28;20036;-69
2023/05/15 05:53:08;;;;;;;25.40;20.35;;;11.40;99.90;;;;;;5069905;28;20122;-70
2023/05/15 05:55:33;;;;;;;28.17;20.73;;;11.70;99.90;;;;;;5069807;28;20434;-72
2023/05/15 05:58:00;;;;;;;22.50;19.00;;;11.60;99.90;;;;;;5069867;28;20051;-69
2023/05/15 06:00:26;;;;;;;30.35;21.33;;;11.60;99.90;;;;;;5062679;28;20052;-70
2023/05/15 06:02:57;;;;;;;26.15;21.73;;;11.60;99.90;;;;;;5069701;28;20072;-72
2023/05/15 06:05:26;;;;;;;25.55;21.85;;;11.70;99.90;;;;;;5069536;28;20074;-70
2023/05/15 06:07:55;;;;;;;27.00;21.50;;;11.70;99.90;;;;;;5044479;28;20121;-70
2023/05/15 06:10:21;;;;;;;29.58;21.52;;;12.00;99.90;;;;;;5068124;28;20138;-70
2023/05/15 06:12:47;;;;;;;24.20;19.67;;;12.00;99.90;;;;;;5069285;28;20135;-71
2023/05/15 06:15:15;;;;;;;27.50;21.27;;;11.90;99.90;;;;;;5069034;28;20417;-69
2023/05/15 06:17:40;;;;;;;25.30;21.42;;;12.00;99.90;;;;;;5068639;28;20072;-70
2023/05/15 06:20:09;;;;;;;26.20;20.90;;;12.10;99.90;;;;;;5067991;28;20542;-76
2023/05/15 06:22:35;;;;;;;27.48;19.50;;;12.00;99.90;;;;;;5067976;28;20472;-69
2023/05/15 06:25:03;;;;;;;27.30;18.25;;;12.00;99.90;;;;;;5069518;28;20048;-70
2023/05/15 06:27:29;;;;;;;24.80;18.55;;;12.10;99.90;;;;;;5069117;28;20416;-69
2023/05/15 06:29:55;;;;;;;24.25;19.77;;;12.10;99.90;;;;;;5064323;28;20135;-74
2023/05/15 06:32:20;;;;;;;29.17;18.77;;;12.20;99.90;;;;;;5066793;28;20044;-71
2023/05/15 06:34:46;;;;;;;23.10;18.05;;;12.10;99.90;;;;;;5066322;28;20048;-71
2023/05/15 06:37:12;;;;;;;26.60;17.92;;;12.10;99.90;;;;;;5062438;28;20395;-71
2023/05/15 06:39:37;;;;;;;22.75;17.33;;;12.30;99.90;;;;;;5064445;28;20491;-70
2023/05/15 06:42:03;;;;;;;22.02;18.20;;;12.20;99.90;;;;;;5062509;28;20059;-69
2023/05/15 06:44:32;;;;;;;29.80;19.80;;;12.20;99.90;;;;;;5069754;28;20036;-70
2023/05/15 06:46:58;;;;;;;23.27;18.42;;;12.30;99.90;;;;;;5069796;28;20452;-71
2023/05/15 06:49:24;;;;;;;24.50;19.20;;;12.40;99.90;;;;;;5068948;28;20078;-69
2023/05/15 06:51:50;;;;;;;22.17;18.33;;;12.50;99.90;;;;;;5069113;28;20434;-71
2023/05/15 06:54:16;;;;;;;24.10;18.52;;;12.60;99.90;;;;;;5068673;28;20072;-71
2023/05/15 06:56:41;;;;;;;21.50;16.83;;;12.60;99.90;;;;;;5067823;28;20428;-71
2023/05/15 06:59:07;;;;;;;21.17;17.02;;;12.50;99.90;;;;;;5068807;28;20156;-70
2023/05/15 07:01:32;;;;;;;21.85;16.02;;;12.60;99.90;;;;;;5068780;28;20037;-69
2023/05/15 07:03:58;;;;;;;18.67;16.13;;;12.70;99.90;;;;;;5068735;28;20055;-70
2023/05/15 07:06:24;;;;;;;23.08;17.90;;;12.70;99.90;;;;;;5068920;28;20048;-69
2023/05/15 07:08:50;;;;;;;22.65;16.45;;;12.90;99.90;;;;;;5061905;28;20106;-71
2023/05/15 07:11:16;;;;;;;22.67;15.77;;;13.40;99.90;;;;;;5067288;28;20052;-69
2023/05/15 07:13:42;;;;;;;20.42;16.75;;;13.10;99.90;;;;;;5059562;28;20406;-70
2023/05/15 07:16:07;;;;;;;23.65;16.67;;;13.20;99.90;;;;;;5069248;28;20052;-69
2023/05/15 07:18:33;;;;;;;22.48;16.27;;;13.20;99.90;;;;;;5069124;28;20053;-75
2023/05/15 07:20:59;;;;;;;21.80;16.02;;;13.30;99.90;;;;;;5067781;28;20051;-72
2023/05/15 07:23:24;;;;;;;23.02;15.25;;;13.40;99.90;;;;;;5069147;28;20049;-73
2023/05/15 07:25:53;;;;;;;19.48;13.88;;;13.50;99.90;;;;;;5069217;28;20072;-71
2023/05/15 07:28:18;;;;;;;18.33;13.75;;;13.80;99.90;;;;;;5064813;28;20063;-71
2023/05/15 07:30:44;;;;;;;15.57;12.30;;;13.80;99.90;;;;;;5063483;28;20036;-69
2023/05/15 07:33:09;;;;;;;15.65;13.48;;;13.90;99.90;;;;;;5067730;28;20140;-69
2023/05/15 07:35:35;;;;;;;19.63;12.85;;;14.10;99.90;;;;;;5063485;28;20120;-69
2023/05/15 07:38:01;;;;;;;15.27;12.07;;;14.10;99.90;;;;;;5068821;28;20129;-69
2023/05/15 07:40:26;;;;;;;19.00;12.55;;;14.20;99.90;;;;;;5063357;28;20045;-72
2023/05/15 07:42:52;;;;;;;16.23;12.23;;;14.50;99.90;;;;;;5050743;28;20041;-69
2023/05/15 07:45:18;;;;;;;14.48;12.25;;;14.80;99.90;;;;;;5051609;28;20543;-69
2023/05/15 07:47:48;;;;;;;15.95;11.50;;;14.90;99.90;;;;;;5049950;28;20071;-70
2023/05/15 07:50:14;;;;;;;14.20;10.82;;;15.10;99.90;;;;;;5051939;28;20082;-71
2023/05/15 07:52:41;;;;;;;14.32;10.80;;;15.10;99.90;;;;;;5062080;28;20631;-69
2023/05/15 07:55:08;;;;;;;16.17;12.10;;;15.20;99.90;;;;;;5068994;28;20043;-70
2023/05/15 07:57:34;;;;;;;16.95;11.60;;;15.20;99.90;;;;;;5069021;28;20396;-71
2023/05/15 08:00:01;;;;;;;15.75;10.98;;;15.30;99.90;;;;;;5073385;28;20052;-71
2023/05/15 08:02:27;;;;;;;12.70;10.27;;;15.20;99.90;;;;;;5055604;28;20041;-69
2023/05/15 08:04:52;;;;;;;11.88;9.63;;;15.20;99.90;;;;;;5054912;28;20051;-69
2023/05/15 08:07:18;;;;;;;14.23;10.10;;;15.40;99.90;;;;;;5069192;28;20048;-69
2023/05/15 08:09:43;;;;;;;15.60;11.00;;;15.70;99.90;;;;;;5072849;28;20044;-70
2023/05/15 08:12:22;;;;;;;15.48;11.77;;;15.80;99.90;;;;;;5072115;28;20047;-70
2023/05/15 08:14:52;;;;;;;16.30;10.38;;;16.20;99.90;;;;;;5064704;28;20056;-69
2023/05/15 08:17:19;;;;;;;14.45;10.90;;;16.20;99.90;;;;;;5060458;28;20056;-70
2023/05/15 08:19:45;;;;;;;13.30;10.10;;;16.30;99.90;;;;;;5066705;28;20133;-71
2023/05/15 08:22:10;;;;;;;15.27;10.88;;;16.50;99.90;;;;;;5060597;28;20132;-74
2023/05/15 08:24:37;;;;;;;13.68;10.85;;;16.70;99.90;;;;;;5064028;28;20040;-71
2023/05/15 08:27:05;;;;;;;14.43;10.77;;;16.70;99.90;;;;;;5062170;28;20693;-71
2023/05/15 08:29:31;;;;;;;13.70;10.70;;;16.90;99.90;;;;;;5063938;28;20518;-71
2023/05/15 08:31:57;;;;;;;11.95;10.10;;;16.90;99.90;;;;;;5068076;28;20399;-73
2023/05/15 08:34:23;;;;;;;10.98;9.68;;;16.90;99.90;;;;;;5064259;28;20033;-70
2023/05/15 08:36:48;;;;;;;14.50;9.13;;;16.90;99.90;;;;;;5065754;28;20542;-73
2023/05/15 08:39:14;;;;;;;14.20;8.90;;;17.20;99.90;;;;;;5063269;28;20088;-72
2023/05/15 08:41:56;;;;;;;12.18;9.63;;;17.20;99.90;;;;;;5068515;28;20079;-71
2023/05/15 08:44:22;;;;;;;14.45;10.10;;;17.40;99.90;;;;;;5067031;28;20102;-73
2023/05/15 08:46:48;;;;;;;12.13;8.80;;;17.30;99.90;;;;;;5068589;28;20556;-68
2023/05/15 08:49:18;;;;;;;13.43;8.95;;;17.50;99.90;;;;;;5065420;28;20110;-73
2023/05/15 08:51:44;;;;;;;13.32;8.73;;;17.90;99.90;;;;;;5067222;28;20040;-69
2023/05/15 08:54:10;;;;;;;10.18;8.35;;;18.20;99.90;;;;;;5067203;28;20063;-71
2023/05/15 08:56:36;;;;;;;11.38;8.95;;;18.50;99.90;;;;;;5067382;28;20037;-71
2023/05/15 08:59:03;;;;;;;16.17;9.43;;;18.60;99.90;;;;;;5069618;28;20048;-70
2023/05/15 09:01:29;;;;;;;18.00;9.75;;;18.70;99.90;;;;;;5067535;28;20044;-69
2023/05/15 09:03:55;;;;;;;15.15;10.23;;;18.80;99.90;;;;;;5066726;28;20514;-72
2023/05/15 09:06:23;;;;;;;13.10;10.75;;;18.80;99.90;;;;;;5067193;28;20048;-72
2023/05/15 09:08:50;;;;;;;13.30;8.93;;;18.60;99.90;;;;;;5068632;28;20068;-75
2023/05/15 09:11:16;;;;;;;13.77;9.77;;;18.70;99.90;;;;;;5069852;28;20056;-72
2023/05/15 09:13:41;;;;;;;14.25;9.25;;;18.60;99.90;;;;;;5068257;28;20053;-76
2023/05/15 09:16:07;;;;;;;14.43;9.00;;;18.50;99.90;;;;;;5051905;28;20523;-74
2023/05/15 09:18:33;;;;;;;11.82;9.13;;;19.00;99.90;;;;;;5051385;28;20507;-73
2023/05/15 09:21:21;;;;;;;12.07;9.93;;;19.20;99.90;;;;;;5053239;28;20056;-75
2023/05/15 09:23:46;;;;;;;12.35;8.88;;;19.40;99.90;;;;;;5054400;28;20036;-75
2023/05/15 09:26:12;;;;;;;13.45;8.25;;;19.70;99.90;;;;;;5053016;28;20472;-73
2023/05/15 09:28:38;;;;;;;13.80;9.65;;;19.90;99.90;;;;;;5053787;28;20061;-75
2023/05/15 09:31:04;;;;;;;11.30;8.40;;;19.90;99.90;;;;;;5062573;28;20123;-78
2023/05/15 09:33:34;;;;;;;11.98;8.73;;;19.80;99.90;;;;;;5057572;28;20098;-71
2023/05/15 09:36:01;;;;;;;17.73;10.10;;;19.60;99.90;;;;;;5063531;28;20531;-72
2023/05/15 09:38:27;;;;;;;13.55;10.50;;;19.60;99.90;;;;;;5055695;28;20391;-73
2023/05/15 09:41:04;;;;;;;11.88;9.38;;;19.40;99.90;;;;;;5056815;28;20123;-75
2023/05/15 09:43:35;;;;;;;11.20;8.57;;;19.50;99.90;;;;;;5056914;28;20084;-68
2023/05/15 09:46:01;;;;;;;11.48;8.68;;;19.90;99.90;;;;;;5058455;28;20052;-73
2023/05/15 09:48:28;;;;;;;11.73;9.25;;;20.10;99.90;;;;;;5062220;28;20045;-70
2023/05/15 09:50:55;;;;;;;11.35;8.85;;;20.10;99.90;;;;;;5059757;28;20055;-72
2023/05/15 09:53:21;;;;;;;11.05;7.57;;;20.20;99.90;;;;;;5058438;28;20117;-73
2023/05/15 09:55:48;;;;;;;11.07;7.93;;;20.00;99.90;;;;;;5059023;28;20036;-71
2023/05/15 09:58:16;;;;;;;14.75;9.07;;;20.10;99.90;;;;;;5061093;28;20045;-74
2023/05/15 10:00:43;;;;;;;17.27;9.05;;;20.00;99.90;;;;;;5059803;28;20102;-73
2023/05/15 10:03:10;;;;;;;11.15;9.00;;;20.20;99.90;;;;;;5062696;28;20044;-72
2023/05/15 10:05:37;;;;;;;11.05;9.18;;;19.80;99.90;;;;;;5063116;28;20044;-77
2023/05/15 10:08:03;;;;;;;12.05;9.05;;;20.00;99.90;;;;;;5063428;28;20047;-71
2023/05/15 10:10:29;;;;;;;11.30;8.60;;;20.40;99.90;;;;;;5063012;28;20448;-71
2023/05/15 10:13:03;;;;;;;14.65;9.07;;;20.50;99.90;;;;;;5060012;28;20052;-75
2023/05/15 10:15:29;;;;;;;11.75;9.30;;;20.40;99.90;;;;;;5062964;28;20087;-72
2023/05/15 10:17:55;;;;;;;13.05;8.75;;;20.20;99.90;;;;;;5058361;28;20054;-72
2023/05/15 10:20:23;;;;;;;16.20;10.02;;;20.20;99.90;;;;;;5060574;28;20404;-71
2023/05/15 10:22:51;;;;;;;12.70;9.15;;;20.20;99.90;;;;;;5064904;28;20044;-72
2023/05/15 10:25:24;;;;;;;13.18;8.80;;;20.40;99.90;;;;;;5045155;28;20069;-72
2023/05/15 10:27:51;;;;;;;16.38;10.00;;;20.50;99.90;;;;;;5060831;28;20060;-72
2023/05/15 10:30:18;;;;;;;12.68;8.48;;;20.10;99.90;;;;;;5059233;28;20392;-72
2023/05/15 10:32:44;;;;;;;12.05;8.82;;;20.10;99.90;;;;;;5061347;28;20115;-72
2023/05/15 10:35:11;;;;;;;11.30;8.07;;;20.50;99.90;;;;;;5044411;28;20147;-72
2023/05/15 10:37:38;;;;;;;12.55;9.18;;;20.60;99.90;;;;;;5068794;28;20040;-71
2023/05/15 10:40:07;;;;;;;13.02;8.68;;;20.40;99.90;;;;;;5061971;28;20036;-72
2023/05/15 10:42:35;;;;;;;14.48;7.20;;;20.70;99.90;;;;;;5061367;28;20480;-78
2023/05/15 10:45:01;;;;;;;10.77;8.15;;;20.80;99.90;;;;;;5063339;28;20410;-72
2023/05/15 10:47:32;;;;;;;10.52;7.55;;;20.80;99.90;;;;;;5042292;28;20051;-72
2023/05/15 10:49:58;;;;;;;9.70;7.35;;;20.90;99.90;;;;;;5062315;28;20051;-74
2023/05/15 10:52:24;;;;;;;10.68;8.10;;;21.10;99.90;;;;;;5060581;28;20499;-74
2023/05/15 10:54:52;;;;;;;11.10;7.40;;;21.20;99.90;;;;;;5062476;28;20452;-73
2023/05/15 10:57:20;;;;;;;10.45;7.53;;;21.20;99.90;;;;;;5062370;28;20054;-76
2023/05/15 10:59:45;;;;;;;12.63;7.53;;;20.90;99.90;;;;;;5054991;28;20088;-72
2023/05/15 11:02:23;;;;;;;12.15;7.97;;;21.00;99.90;;;;;;5066002;28;20072;-77
2023/05/15 11:04:59;;;;;;;9.80;7.10;;;21.00;99.90;;;;;;5062551;28;20040;-74
2023/05/15 11:07:25;;;;;;;10.93;7.20;;;20.90;99.90;;;;;;5068766;28;20048;-78
2023/05/15 11:09:52;;;;;;;9.45;7.47;;;20.80;99.90;;;;;;5065835;28;20041;-72
2023/05/15 11:12:18;;;;;;;9.40;7.25;;;20.80;99.90;;;;;;5063564;28;20135;-73
2023/05/15 11:14:56;;;;;;;10.60;7.70;;;20.90;99.90;;;;;;5063450;28;20106;-72
2023/05/15 11:17:25;;;;;;;10.00;7.63;;;20.90;99.90;;;;;;5063745;28;20114;-73
2023/05/15 11:19:50;;;;;;;10.07;7.32;;;21.20;99.90;;;;;;5070155;28;20044;-73
2023/05/15 11:22:24;;;;;;;12.43;8.07;;;21.30;99.90;;;;;;5068630;28;20794;-71
2023/05/15 11:24:52;;;;;;;11.10;8.10;;;21.60;99.90;;;;;;5069643;28;20050;-74
2023/05/15 11:27:18;;;;;;;11.57;8.55;;;21.50;99.90;;;;;;5069780;28;20868;-73
2023/05/15 11:30:03;;;;;;;11.57;9.18;;;21.20;99.90;;;;;;5052068;28;20048;-73
2023/05/15 11:33:03;;;;;;;13.85;9.48;;;21.30;99.90;;;;;;5067068;28;20568;-73
2023/05/15 11:35:33;;;;;;;19.85;9.43;;;20.90;99.90;;;;;;5067764;28;20052;-71
2023/05/15 11:38:13;;;;;;;11.95;9.77;;;20.60;99.90;;;;;;5072654;28;20049;-72
2023/05/15 11:41:01;;;;;;;11.60;9.18;;;20.60;99.90;;;;;;5066860;28;20063;-74
2023/05/15 11:43:29;;;;;;;9.90;8.60;;;21.10;99.90;;;;;;5066441;28;20139;-73
2023/05/15 11:46:14;;;;;;;9.23;7.78;;;21.20;99.90;;;;;;5072154;28;20115;-72
2023/05/15 11:48:46;;;;;;;9.15;7.22;;;21.10;99.90;;;;;;5062981;28;20047;-72
2023/05/15 11:51:20;;;;;;;11.57;7.50;;;20.80;99.90;;;;;;5070981;28;20044;-72
2023/05/15 11:53:48;;;;;;;9.65;7.40;;;20.50;99.90;;;;;;5066787;28;20124;-72
2023/05/15 11:56:21;;;;;;;10.80;7.97;;;20.50;99.90;;;;;;5072483;28;20080;-74
2023/05/15 11:58:55;;;;;;;11.20;6.60;;;20.20;99.90;;;;;;5072514;28;20055;-73
2023/05/15 12:01:21;;;;;;;9.70;7.53;;;20.40;99.90;;;;;;5067217;28;20084;-73
2023/05/15 12:03:48;;;;;;;9.68;6.63;;;20.50;99.90;;;;;;5065551;28;20071;-72
2023/05/15 12:06:14;;;;;;;10.07;6.38;;;20.40;99.90;;;;;;5073219;28;20041;-72
2023/05/15 12:08:41;;;;;;;9.20;5.88;;;20.30;99.90;;;;;;5071651;28;20051;-73
2023/05/15 12:11:07;;;;;;;8.57;6.35;;;20.70;99.90;;;;;;5071374;28;20123;-71
2023/05/15 12:13:34;;;;;;;10.05;5.75;;;20.70;99.90;;;;;;5067594;28;20415;-71
2023/05/15 12:16:03;;;;;;;11.40;5.80;;;20.90;99.90;;;;;;5069223;28;20056;-75
2023/05/15 12:18:31;;;;;;;10.85;7.03;;;21.00;99.90;;;;;;5070227;28;20068;-74
2023/05/15 12:20:56;;;;;;;8.57;6.47;;;20.50;99.90;;;;;;5052922;28;20056;-73
2023/05/15 12:23:24;;;;;;;9.07;7.05;;;20.40;99.90;;;;;;5067914;28;20044;-72
2023/05/15 12:25:53;;;;;;;11.88;7.50;;;20.30;99.90;;;;;;5070887;28;20048;-73
2023/05/15 12:28:20;;;;;;;10.52;6.55;;;20.20;99.90;;;;;;5068705;28;20040;-71
2023/05/15 12:30:46;;;;;;;8.00;6.38;;;20.40;99.90;;;;;;5069360;28;20041;-71
2023/05/15 12:33:12;;;;;;;20.35;8.07;;;20.40;99.90;;;;;;5069174;28;20538;-70
2023/05/15 12:35:42;;;;;;;9.82;7.70;;;20.50;99.90;;;;;;5069357;28;20076;-71